Time;durP1;ratioP1;P1;durP2;ratioP2;P2;SDS_P1;SDS_P2;PMS_P1;PMS_P2;Temp;Humidity;BMP_temperature;BMP_pressure;BME280_temperature;BME280_humidity;BME280_pressure;Samples;Min_cycle;Max_cycle;Signal;HPM_P1;HPM_P2
2022/12/15 00:39:39;;;;;;;15.77;7.80;;;;;;;-4.17;100.00;100273.78;5011898;28;20049;-78
2022/12/15 00:42:06;;;;;;;17.75;11.38;;;;;;;-4.18;100.00;100273.81;5030040;28;20545;-78
2022/12/15 00:44:32;;;;;;;14.57;7.03;;;;;;;-4.17;100.00;100284.09;5034413;28;20056;-79
2022/12/15 00:46:59;;;;;;;13.95;6.78;;;;;;;-4.14;100.00;100286.56;5012424;28;20061;-78
2022/12/15 01:20:17;;;;;;;15.80;8.27;;;;;;;-4.26;100.00;100287.00;5030816;28;20041;-78
2022/12/15 01:22:48;;;;;;;21.35;12.43;;;;;;;-4.26;100.00;100287.00;5019226;28;20038;-79
2022/12/15 01:25:17;;;;;;;34.10;21.42;;;;;;;-4.26;100.00;100287.84;5010837;28;20041;-79
2022/12/15 01:27:43;;;;;;;19.20;9.15;;;;;;;-4.27;100.00;100285.31;5013785;28;20085;-79
2022/12/15 01:30:12;;;;;;;14.02;7.88;;;;;;;-4.26;100.00;100292.16;5043061;28;20080;-79
2022/12/15 01:32:38;;;;;;;12.13;7.63;;;;;;;-4.30;100.00;100296.56;5021699;28;20037;-79
2022/12/15 01:35:05;;;;;;;16.70;6.78;;;;;;;-4.31;100.00;100299.22;5027436;28;20056;-79
2022/12/15 01:37:31;;;;;;;19.85;8.35;;;;;;;-4.38;100.00;100286.53;5029002;28;20481;-79
2022/12/15 01:42:42;;;;;;;15.70;8.65;;;;;;;-4.36;100.00;100291.63;5027557;28;20045;-79
2022/12/15 01:45:23;;;;;;;19.33;11.02;;;;;;;-4.34;100.00;100292.44;5011126;28;20489;-78
2022/12/15 01:47:56;;;;;;;14.60;8.30;;;;;;;-4.42;100.00;100299.56;5027845;28;20037;-78
2022/12/15 01:50:23;;;;;;;22.27;12.00;;;;;;;-4.48;100.00;100287.75;5026816;28;20490;-79
2022/12/15 01:52:49;;;;;;;21.40;13.25;;;;;;;-4.49;100.00;100289.47;5011346;28;20041;-78
2022/12/15 01:55:18;;;;;;;28.17;17.52;;;;;;;-4.52;100.00;100294.72;5021926;28;20053;-79
2022/12/15 01:57:46;;;;;;;16.58;9.98;;;;;;;-4.59;100.00;100298.41;5021376;28;20041;-79
2022/12/15 02:00:12;;;;;;;12.82;6.53;;;;;;;-4.65;100.00;100289.13;5011665;28;20045;-78
2022/12/15 02:02:39;;;;;;;14.50;7.50;;;;;;;-4.66;100.00;100300.34;5041848;28;20328;-79
2022/12/15 02:05:07;;;;;;;12.85;6.78;;;;;;;-4.61;100.00;100301.03;5025978;28;20035;-79
2022/12/15 02:07:32;;;;;;;15.00;6.55;;;;;;;-4.58;100.00;100300.09;5029606;28;20091;-79
2022/12/15 02:10:01;;;;;;;17.58;8.18;;;;;;;-4.53;100.00;100305.09;5028861;28;20064;-79
2022/12/15 02:12:45;;;;;;;19.55;8.05;;;;;;;-4.53;100.00;100297.34;5011588;28;20108;-78
2022/12/15 02:15:32;;;;;;;16.85;9.38;;;;;;;-4.54;100.00;100298.25;5043399;28;20030;-79
2022/12/15 02:18:00;;;;;;;19.27;8.48;;;;;;;-4.50;100.00;100294.69;5043303;28;20430;-78
2022/12/15 02:20:54;;;;;;;18.40;7.28;;;;;;;-4.47;100.00;100293.75;5020648;28;20059;-79
2022/12/15 02:23:48;;;;;;;14.73;7.03;;;;;;;-4.50;100.00;100303.28;5030538;28;20033;-79
2022/12/15 02:26:27;;;;;;;13.43;7.25;;;;;;;-4.50;100.00;100317.91;5026162;28;20037;-78
2022/12/15 02:29:02;;;;;;;15.07;8.07;;;;;;;-4.56;100.00;100310.34;5026723;28;20048;-78
2022/12/15 02:31:51;;;;;;;13.68;6.10;;;;;;;-4.57;100.00;100308.69;5018313;28;20502;-78
2022/12/15 02:34:38;;;;;;;27.52;13.80;;;;;;;-4.66;100.00;100317.53;5026681;28;20106;-79
2022/12/15 02:37:16;;;;;;;29.40;13.75;;;;;;;-4.75;100.00;100311.81;5012494;28;20033;-79
2022/12/15 02:39:43;;;;;;;27.45;11.38;;;;;;;-4.81;100.00;100311.16;5027915;28;20104;-78
2022/12/15 02:42:10;;;;;;;28.38;13.13;;;;;;;-5.05;100.00;100313.63;5005831;28;20075;-78
2022/12/15 02:44:38;;;;;;;23.40;11.48;;;;;;;-5.20;100.00;100312.34;4995621;28;20037;-78
2022/12/15 02:47:36;;;;;;;14.32;7.10;;;;;;;-5.24;100.00;100316.75;5040601;28;20099;-78
2022/12/15 02:50:27;;;;;;;13.07;7.13;;;;;;;-5.20;100.00;100309.75;4999386;28;20173;-78
2022/12/15 02:53:22;;;;;;;19.95;7.38;;;;;;;-5.16;100.00;100308.78;5028684;28;20386;-78
2022/12/15 02:55:51;;;;;;;17.23;7.55;;;;;;;-5.22;100.00;100304.66;5028226;28;20042;-78
2022/12/15 02:58:16;;;;;;;16.10;7.88;;;;;;;-5.23;100.00;100300.41;5030430;28;20041;-78
2022/12/15 03:00:49;;;;;;;17.70;8.43;;;;;;;-5.24;100.00;100299.53;5044977;28;20041;-78
2022/12/15 03:03:19;;;;;;;23.40;9.63;;;;;;;-5.24;100.00;100302.13;5029002;28;20033;-78
2022/12/15 03:05:56;;;;;;;20.88;9.27;;;;;;;-5.26;100.00;100298.75;5030585;28;20095;-78
2022/12/15 03:08:22;;;;;;;17.98;7.72;;;;;;;-5.31;100.00;100300.63;4999162;28;20450;-78
2022/12/15 03:10:51;;;;;;;19.05;8.15;;;;;;;-5.32;100.00;100300.69;5024539;28;20040;-78
2022/12/15 03:13:23;;;;;;;13.55;7.35;;;;;;;-5.36;100.00;100311.06;5015333;28;20037;-78
2022/12/15 03:15:53;;;;;;;19.08;8.18;;;;;;;-5.39;100.00;100308.59;5015630;28;20037;-78
2022/12/15 03:18:22;;;;;;;13.10;6.15;;;;;;;-5.40;100.00;100317.19;5014122;28;20482;-78
2022/12/15 03:20:49;;;;;;;13.07;6.50;;;;;;;-5.45;100.00;100313.94;5012706;28;20038;-78
2022/12/15 03:23:15;;;;;;;11.45;6.05;;;;;;;-5.46;100.00;100311.38;5029664;28;20037;-78
2022/12/15 03:25:44;;;;;;;10.23;6.20;;;;;;;-5.45;100.00;100313.94;5030478;28;20041;-78
2022/12/15 03:28:09;;;;;;;14.43;7.00;;;;;;;-5.45;100.00;100302.75;5030479;28;20030;-78
2022/12/15 03:30:38;;;;;;;14.88;6.13;;;;;;;-5.42;100.00;100294.94;5030645;28;20513;-78
2022/12/15 03:33:07;;;;;;;15.85;6.07;;;;;;;-5.42;100.00;100300.94;5030099;28;20136;-78
2022/12/15 03:35:33;;;;;;;17.20;7.45;;;;;;;-5.42;100.00;100305.25;5012235;28;20128;-78
2022/12/15 03:37:59;;;;;;;13.55;7.15;;;;;;;-5.41;100.00;100305.19;5030644;28;21357;-78
2022/12/15 03:40:27;;;;;;;15.55;6.55;;;;;;;-5.42;100.00;100308.69;5027756;28;20478;-78
2022/12/15 03:42:53;;;;;;;13.57;6.72;;;;;;;-5.46;100.00;100306.25;5046868;28;20367;-78
2022/12/15 03:45:27;;;;;;;20.20;6.35;;;;;;;-5.52;100.00;100309.81;5014492;28;20039;-78
2022/12/15 03:47:54;;;;;;;21.10;7.28;;;;;;;-5.54;100.00;100304.72;4995058;28;20634;-77
2022/12/15 03:50:24;;;;;;;15.45;6.68;;;;;;;-5.49;100.00;100304.56;5029129;28;20102;-78
2022/12/15 03:52:52;;;;;;;16.95;6.22;;;;;;;-5.43;100.00;100296.66;5045973;28;20037;-78
2022/12/15 03:55:28;;;;;;;27.15;8.50;;;;;;;-5.41;100.00;100294.03;5013296;28;20030;-78
2022/12/15 03:57:55;;;;;;;14.25;5.50;;;;;;;-5.33;100.00;100304.16;5011182;28;20098;-78
2022/12/15 04:00:21;;;;;;;14.73;5.70;;;;;;;-5.31;100.00;100302.34;5030863;28;20073;-78
2022/12/15 04:02:52;;;;;;;11.98;4.70;;;;;;;-5.25;100.00;100302.16;5029728;28;20517;-78
2022/12/15 04:05:32;;;;;;;13.02;3.72;;;;;;;-5.19;100.00;100304.56;5016336;28;20037;-78
2022/12/15 04:08:01;;;;;;;9.80;4.88;;;;;;;-5.05;100.00;100305.88;5027716;28;20052;-78
2022/12/15 04:10:29;;;;;;;7.72;2.95;;;;;;;-4.88;100.00;100308.78;5045531;28;20052;-78
2022/12/15 04:13:16;;;;;;;10.73;5.30;;;;;;;-4.81;100.00;100301.66;5037094;28;20163;-78
2022/12/15 04:15:42;;;;;;;19.83;4.10;;;;;;;-4.78;100.00;100303.31;5029817;28;20041;-78
2022/12/15 04:18:14;;;;;;;7.55;3.60;;;;;;;-4.70;100.00;100295.34;4999831;28;20440;-78
2022/12/15 04:20:40;;;;;;;10.75;2.92;;;;;;;-4.58;100.00;100296.66;5045199;28;20099;-78
2022/12/15 04:23:07;;;;;;;7.63;3.22;;;;;;;-4.45;100.00;100302.25;5022721;28;20041;-77
2022/12/15 05:32:55;;;;;;;18.88;9.05;;;;;;;-5.75;100.00;100293.31;5027975;28;20401;-78
2022/12/15 05:35:21;;;;;;;17.65;8.57;;;;;;;-5.70;100.00;100288.03;5016057;28;20040;-78
2022/12/15 05:37:47;;;;;;;18.58;8.48;;;;;;;-5.63;100.00;100282.66;5029887;28;20041;-78
2022/12/15 05:40:12;;;;;;;18.83;7.75;;;;;;;-5.49;100.00;100284.81;5023539;28;20096;-78
2022/12/15 05:42:38;;;;;;;16.40;9.20;;;;;;;-5.36;100.00;100292.19;5024728;28;20397;-78
2022/12/15 05:45:05;;;;;;;12.35;6.22;;;;;;;-5.28;100.00;100295.38;5011390;28;20033;-78
2022/12/15 05:47:37;;;;;;;29.25;8.13;;;;;;;-5.20;100.00;100296.88;5032151;28;20121;-78
2022/12/15 05:50:09;;;;;;;16.83;9.23;;;;;;;-5.18;100.00;100295.94;5041986;28;20033;-78
2022/12/15 05:52:38;;;;;;;16.60;8.43;;;;;;;-5.22;100.00;100299.50;5026388;28;20149;-78
2022/12/15 05:55:14;;;;;;;17.52;8.32;;;;;;;-5.24;100.00;100303.88;5003617;28;20045;-78
2022/12/15 05:57:40;;;;;;;;;;;;;;;-5.40;100.00;100308.63;5022221;28;20037;-78
2022/12/15 06:00:07;;;;;;;14.27;6.93;;;;;;;-5.53;100.00;100303.00;5022691;28;19924;-78
2022/12/15 06:02:37;;;;;;;16.92;8.43;;;;;;;-5.53;100.00;100303.00;5023760;28;20041;-78
2022/12/15 06:05:04;;;;;;;16.20;7.88;;;;;;;-5.45;100.00;100306.19;5039320;28;20071;-78
2022/12/15 06:07:33;;;;;;;19.02;8.40;;;;;;;-5.41;100.00;100314.66;5024568;28;20502;-78
2022/12/15 06:10:04;;;;;;;12.35;7.15;;;;;;;-5.37;100.00;100308.53;5022915;28;20108;-78
2022/12/15 06:12:37;;;;;;;10.48;5.65;;;;;;;-5.36;100.00;100313.66;5040230;28;20044;-78
2022/12/15 06:15:05;;;;;;;12.00;5.40;;;;;;;-5.33;100.00;100307.56;5026358;28;20128;-78
2022/12/15 06:17:36;;;;;;;10.13;5.65;;;;;;;-5.30;100.00;100320.34;5010957;28;20044;-78
2022/12/15 06:20:04;;;;;;;9.60;5.15;;;;;;;-5.28;100.00;100331.47;5027093;28;20033;-78
2022/12/15 06:22:37;;;;;;;23.27;9.85;;;;;;;-5.37;100.00;100327.41;5026739;28;20413;-78
2022/12/15 06:25:07;;;;;;;23.27;11.10;;;;;;;-5.54;100.00;100327.91;5024685;28;20037;-78
2022/12/15 06:27:39;;;;;;;25.08;11.43;;;;;;;-5.54;100.00;100329.66;5041098;28;20139;-78
2022/12/15 06:30:05;;;;;;;21.42;10.50;;;;;;;-5.54;100.00;100319.34;4994980;28;20041;-78
2022/12/15 06:32:34;;;;;;;18.48;10.05;;;;;;;-5.54;100.00;100321.91;5010746;28;20045;-78
2022/12/15 06:35:00;;;;;;;18.92;10.15;;;;;;;-5.58;100.00;100325.44;5027657;28;20620;-78
2022/12/15 06:37:26;;;;;;;16.70;9.57;;;;;;;-5.61;100.00;100319.53;5044252;28;20050;-78
2022/12/15 06:39:52;;;;;;;21.73;9.57;;;;;;;-5.62;100.00;100322.97;5010375;28;20045;-78
2022/12/15 06:42:18;;;;;;;17.85;7.30;;;;;;;-5.60;100.00;100323.78;5005212;28;20091;-78
2022/12/15 06:44:44;;;;;;;12.38;5.88;;;;;;;-5.65;100.00;100310.19;4993904;28;20042;-78
2022/12/15 06:47:13;;;;;;;124.63;48.35;;;;;;;-5.79;100.00;100313.13;5029665;28;20039;-77
2022/12/15 06:49:39;;;;;;;112.60;47.10;;;;;;;-5.86;100.00;100306.50;5008117;28;20025;-78
2022/12/15 06:52:04;;;;;;;52.67;24.35;;;;;;;-5.91;100.00;100311.72;5031739;28;20386;-78
2022/12/15 06:54:31;;;;;;;43.15;20.00;;;;;;;-5.91;100.00;100311.72;5008920;28;20128;-78
2022/12/15 06:56:56;;;;;;;24.35;10.18;;;;;;;-5.91;100.00;100314.31;5027294;28;20037;-78
2022/12/15 06:59:22;;;;;;;15.52;6.97;;;;;;;-6.21;100.00;100324.56;5013045;28;20049;-78
2022/12/15 07:01:48;;;;;;;18.40;10.52;;;;;;;-6.51;100.00;100325.31;5025664;28;20117;-78
2022/12/15 07:04:14;;;;;;;31.02;14.82;;;;;;;-6.68;100.00;100324.88;5027399;28;20045;-78
2022/12/15 07:06:41;;;;;;;19.63;10.25;;;;;;;-6.70;100.00;100334.38;5027609;28;20041;-78
2022/12/15 07:09:12;;;;;;;26.92;11.15;;;;;;;-6.97;100.00;100332.38;5028134;28;20108;-79
2022/12/15 07:11:38;;;;;;;23.55;11.40;;;;;;;-6.92;100.00;100333.13;5026515;28;20068;-78
2022/12/15 07:14:04;;;;;;;20.70;10.93;;;;;;;-6.77;100.00;100339.63;5012420;28;20065;-78
2022/12/15 07:16:29;;;;;;;22.83;10.30;;;;;;;-6.68;100.00;100341.16;5024769;28;20026;-78
2022/12/15 07:18:55;;;;;;;16.48;8.98;;;;;;;-6.61;100.00;100350.41;5022941;28;20030;-78
2022/12/15 07:21:21;;;;;;;14.10;6.68;;;;;;;-6.77;100.00;100355.03;5024914;28;20105;-78
2022/12/15 07:23:47;;;;;;;25.58;9.15;;;;;;;-6.69;100.00;100352.31;5028658;28;20033;-78
2022/12/15 07:26:13;;;;;;;15.75;9.43;;;;;;;-6.71;100.00;100343.78;5000236;28;20074;-78
2022/12/15 07:28:39;;;;;;;21.00;10.20;;;;;;;-6.70;100.00;100352.34;5005149;28;20319;-79
2022/12/15 07:31:07;;;;;;;25.15;10.85;;;;;;;-6.64;100.00;100355.59;5023361;28;20037;-78
2022/12/15 07:33:34;;;;;;;21.05;10.13;;;;;;;-6.62;100.00;100348.72;5009523;28;20037;-78
2022/12/15 07:36:01;;;;;;;20.92;9.85;;;;;;;-6.58;100.00;100348.63;5026416;28;20037;-77
2022/12/15 07:38:28;;;;;;;15.23;8.55;;;;;;;-6.54;100.00;100357.97;5009829;28;20075;-77
2022/12/15 07:40:54;;;;;;;19.95;9.75;;;;;;;-6.47;100.00;100362.09;5008527;28;20497;-77
2022/12/15 07:43:21;;;;;;;24.13;9.82;;;;;;;-6.69;100.00;100366.91;5011205;28;20062;-77
2022/12/15 07:45:54;;;;;;;16.80;8.77;;;;;;;-6.80;100.00;100364.56;5030111;28;20119;-77
2022/12/15 07:48:20;;;;;;;18.35;8.95;;;;;;;-6.85;100.00;100368.06;5024480;28;20021;-77
2022/12/15 07:50:46;;;;;;;13.45;8.15;;;;;;;-6.82;100.00;100374.03;5014096;28;20037;-78
2022/12/15 07:53:12;;;;;;;17.02;8.07;;;;;;;-6.74;100.00;100370.44;4995585;28;20036;-78
2022/12/15 07:55:38;;;;;;;22.17;10.77;;;;;;;-6.68;100.00;100368.56;5012320;28;20446;-78
2022/12/15 07:58:03;;;;;;;16.35;8.13;;;;;;;-6.70;100.00;100354.94;5028952;28;20456;-78
2022/12/15 08:00:29;;;;;;;18.20;7.63;;;;;;;-6.65;100.00;100353.94;5030636;28;20045;-78
2022/12/15 08:02:55;;;;;;;18.00;8.20;;;;;;;-6.60;100.00;100358.97;5006620;28;20386;-78
2022/12/15 08:05:21;;;;;;;13.75;7.05;;;;;;;-6.54;100.00;100357.97;5028677;28;20042;-78
2022/12/15 08:07:47;;;;;;;15.98;7.07;;;;;;;-6.46;100.00;100366.34;5026158;28;20120;-78
2022/12/15 08:10:13;;;;;;;16.77;8.55;;;;;;;-6.41;100.00;100379.09;5041291;28;20084;-78
2022/12/15 08:12:39;;;;;;;17.45;7.25;;;;;;;-6.44;100.00;100374.03;5028106;28;20567;-78
2022/12/15 08:15:05;;;;;;;26.55;13.55;;;;;;;-6.38;100.00;100385.00;5013188;28;20029;-78
2022/12/15 08:17:33;;;;;;;34.95;13.18;;;;;;;-6.32;100.00;100384.00;5011383;28;20033;-78
2022/12/15 08:20:02;;;;;;;18.30;7.28;;;;;;;-6.27;100.00;100374.47;5013899;28;20406;-78
2022/12/15 08:22:28;;;;;;;26.77;12.70;;;;;;;-6.17;100.00;100379.38;5030385;28;20386;-78
2022/12/15 08:24:54;;;;;;;19.80;9.05;;;;;;;-6.13;100.00;100389.53;5045743;28;20033;-78
2022/12/15 08:27:20;;;;;;;14.60;7.20;;;;;;;-6.20;100.00;100400.88;5019487;28;20029;-78
2022/12/15 08:29:49;;;;;;;20.65;8.82;;;;;;;-6.26;100.00;100396.72;5046388;28;20029;-78
2022/12/15 08:32:15;;;;;;;19.60;9.50;;;;;;;-6.31;100.00;100400.28;5022715;28;20034;-78
2022/12/15 08:34:41;;;;;;;18.90;9.18;;;;;;;-6.29;100.00;100401.13;5025366;28;20103;-78
2022/12/15 08:37:07;;;;;;;17.02;8.88;;;;;;;-6.31;100.00;100405.44;5011345;28;20033;-78
2022/12/15 08:39:33;;;;;;;19.63;8.75;;;;;;;-6.60;100.00;100407.81;5025873;28;20038;-78
2022/12/15 08:41:59;;;;;;;17.75;9.20;;;;;;;-6.60;100.00;100418.09;5027583;28;20072;-78
2022/12/15 08:44:25;;;;;;;21.42;10.98;;;;;;;-6.56;100.00;100422.28;5043116;28;20075;-78
2022/12/15 08:46:51;;;;;;;15.93;8.07;;;;;;;-6.52;100.00;100430.78;5024882;28;20033;-78
2022/12/15 08:49:16;;;;;;;21.15;7.82;;;;;;;-6.57;100.00;100430.03;5012216;28;20037;-77
2022/12/15 08:51:44;;;;;;;19.02;8.00;;;;;;;-6.55;100.00;100428.28;5027213;28;20065;-79
2022/12/15 08:54:10;;;;;;;20.67;10.50;;;;;;;-6.52;100.00;100428.22;5025843;28;20478;-78
2022/12/15 08:56:35;;;;;;;13.20;7.28;;;;;;;-6.51;100.00;100429.88;5026498;28;20047;-78
2022/12/15 08:59:02;;;;;;;20.25;10.05;;;;;;;-6.45;100.00;100434.91;5027191;28;20485;-77
2022/12/15 09:01:30;;;;;;;29.60;14.60;;;;;;;-6.42;100.00;100445.13;5028095;28;20029;-78
2022/12/15 09:03:58;;;;;;;17.33;9.77;;;;;;;-6.37;100.00;100435.56;5010449;28;20037;-78
2022/12/15 09:06:33;;;;;;;27.95;16.40;;;;;;;-6.30;100.00;100444.00;5030164;28;20036;-78
2022/12/15 09:09:01;;;;;;;22.27;11.90;;;;;;;-6.26;100.00;100447.34;5028017;28;20083;-81
2022/12/15 09:11:28;;;;;;;15.90;8.30;;;;;;;-6.21;100.00;100462.66;5010938;28;20033;-79
2022/12/15 09:13:54;;;;;;;14.73;7.15;;;;;;;-6.20;100.00;100462.63;5027840;28;20069;-79
2022/12/15 09:16:20;;;;;;;27.90;12.60;;;;;;;-6.21;100.00;100460.91;5044524;28;20041;-78
2022/12/15 09:18:54;;;;;;;21.73;9.68;;;;;;;-6.14;100.00;100461.63;5043897;28;20110;-78
2022/12/15 09:21:24;;;;;;;20.83;9.88;;;;;;;-6.10;100.00;100466.66;5027980;28;20025;-78
2022/12/15 09:23:53;;;;;;;28.42;12.05;;;;;;;-6.07;100.00;100470.06;5026108;28;20069;-76
2022/12/15 09:26:21;;;;;;;22.10;9.88;;;;;;;-6.06;100.00;100466.59;5027554;28;20037;-78
2022/12/15 09:28:48;;;;;;;17.88;9.63;;;;;;;-6.00;100.00;100476.69;4994456;28;20524;-78
2022/12/15 09:31:19;;;;;;;27.33;10.07;;;;;;;-5.93;100.00;100474.84;5028823;28;20068;-78
2022/12/15 09:33:45;;;;;;;20.73;8.82;;;;;;;-5.87;100.00;100485.84;5012221;28;20091;-78
2022/12/15 09:36:12;;;;;;;31.80;18.60;;;;;;;-5.79;100.00;100474.47;5008846;28;20049;-79
2022/12/15 09:38:39;;;;;;;24.48;13.50;;;;;;;-5.76;100.00;100474.41;5028110;28;20406;-78
2022/12/15 09:41:16;;;;;;;27.38;11.40;;;;;;;-5.69;100.00;100478.53;5044859;28;20030;-78
2022/12/15 09:44:06;;;;;;;32.78;13.55;;;;;;;-5.63;100.00;100486.09;5012293;28;20116;-78
2022/12/15 09:46:49;;;;;;;20.42;9.70;;;;;;;-5.70;100.00;100484.53;5041083;28;20037;-78
2022/12/15 09:49:49;;;;;;;26.70;12.25;;;;;;;-5.63;100.00;100490.41;5023788;28;20037;-78
2022/12/15 09:52:23;;;;;;;24.50;12.25;;;;;;;-5.50;100.00;100496.09;5013151;28;20041;-78
2022/12/15 09:54:52;;;;;;;31.10;13.48;;;;;;;-5.41;100.00;100484.69;5038755;28;20106;-78
2022/12/15 09:57:43;;;;;;;27.15;13.07;;;;;;;-5.26;100.00;100493.75;5040495;28;20519;-78
2022/12/15 10:00:20;;;;;;;35.35;15.48;;;;;;;-5.16;100.00;100491.78;5007591;28;20149;-78
2022/12/15 10:03:12;;;;;;;35.85;15.95;;;;;;;-5.08;100.00;100491.56;5025367;28;20044;-78
2022/12/15 10:05:50;;;;;;;23.25;13.20;;;;;;;-5.05;100.00;100491.47;5022090;28;20041;-78
2022/12/15 10:08:19;;;;;;;18.20;8.82;;;;;;;-5.02;100.00;100505.13;5025754;28;20033;-77
2022/12/15 10:11:03;;;;;;;16.27;8.32;;;;;;;-4.95;100.00;100487.72;5026152;28;20045;-77
2022/12/15 10:13:49;;;;;;;17.67;8.70;;;;;;;-4.84;100.00;100481.44;5027244;28;20033;-77
2022/12/15 10:16:38;;;;;;;18.15;8.48;;;;;;;-4.71;100.00;100492.25;5042246;28;20486;-77
2022/12/15 10:19:17;;;;;;;17.40;8.90;;;;;;;-4.69;100.00;100499.03;5010941;28;20072;-77
2022/12/15 10:21:43;;;;;;;21.50;11.07;;;;;;;-4.67;100.00;100494.69;5038005;28;20037;-77
2022/12/15 10:24:20;;;;;;;37.40;16.40;;;;;;;-4.54;100.00;100496.91;4994315;28;20068;-77
2022/12/15 10:26:54;;;;;;;19.55;10.95;;;;;;;-4.48;100.00;100496.72;5006351;28;20375;-77
2022/12/15 10:29:43;;;;;;;20.95;10.68;;;;;;;-4.38;100.00;100495.53;4977753;28;20043;-77
2022/12/15 10:32:18;;;;;;;17.38;9.27;;;;;;;-4.34;100.00;100496.28;5019514;28;20137;-77
2022/12/15 10:34:45;;;;;;;16.42;8.75;;;;;;;-4.30;100.00;100499.63;5035192;28;20559;-77
2022/12/15 10:37:19;;;;;;;18.65;9.07;;;;;;;-4.33;100.00;100510.88;5025827;28;20064;-77
2022/12/15 10:39:49;;;;;;;17.85;7.68;;;;;;;-4.36;100.00;100508.38;5006864;28;20080;-77
2022/12/15 10:42:20;;;;;;;21.83;8.25;;;;;;;-4.24;100.00;100510.59;5012111;28;20041;-77
2022/12/15 10:44:49;;;;;;;14.95;7.22;;;;;;;-4.12;100.00;100500.78;5025696;28;20104;-77
2022/12/15 10:47:19;;;;;;;17.90;8.15;;;;;;;-3.97;100.00;100508.94;5041028;28;20433;-77
2022/12/15 10:49:46;;;;;;;16.52;6.40;;;;;;;-3.83;100.00;100509.34;5008115;28;20120;-77
2022/12/15 10:52:26;;;;;;;18.38;7.50;;;;;;;-3.67;100.00;100499.34;5042148;28;20049;-77
2022/12/15 10:54:54;;;;;;;11.98;6.72;;;;;;;-3.52;100.00;100497.16;5025468;28;20044;-77
2022/12/15 10:57:30;;;;;;;16.25;7.07;;;;;;;-3.37;100.00;100499.22;5026145;28;20026;-77
2022/12/15 11:00:14;;;;;;;16.73;6.50;;;;;;;-3.20;100.00;100487.41;5043304;28;20057;-77
2022/12/15 11:02:41;;;;;;;9.52;5.07;;;;;;;-3.07;100.00;100493.00;5005396;28;20052;-77
2022/12/15 11:05:15;;;;;;;10.75;6.40;;;;;;;-2.90;100.00;100488.97;5024229;28;20038;-77
2022/12/15 11:07:43;;;;;;;11.02;6.30;;;;;;;-2.80;100.00;100486.91;5024116;28;20037;-77
2022/12/15 11:13:17;;;;;;;14.30;7.60;;;;;;;-2.52;100.00;100485.84;5028886;28;20037;-77
2022/12/15 11:15:51;;;;;;;18.90;8.20;;;;;;;-2.38;100.00;100493.06;5009859;28;20049;-77
2022/12/15 11:18:23;;;;;;;18.73;9.40;;;;;;;-2.29;100.00;100487.53;5044069;28;20033;-77
2022/12/15 11:21:03;;;;;;;17.15;9.00;;;;;;;-2.12;100.00;100492.03;5029712;28;20533;-77
2022/12/15 11:23:46;;;;;;;20.35;10.15;;;;;;;-2.03;100.00;100477.88;5029224;28;20037;-77
2022/12/15 11:26:29;;;;;;;17.67;8.65;;;;;;;-1.88;100.00;100486.78;5031167;28;20065;-77
2022/12/15 11:29:25;;;;;;;14.75;7.90;;;;;;;-1.76;100.00;100485.44;5021741;28;20029;-77
2022/12/15 11:31:53;;;;;;;20.70;8.68;;;;;;;-1.67;100.00;100488.56;5015839;28;20478;-77
2022/12/15 11:34:23;;;;;;;20.60;9.75;;;;;;;-1.61;100.00;100480.53;5024827;28;20056;-76
2022/12/15 11:37:08;;;;;;;15.88;8.90;;;;;;;-1.54;100.00;100479.34;5029952;28;20041;-77
2022/12/15 11:39:34;;;;;;;34.88;13.38;;;;;;;-1.50;100.00;100474.88;5013119;28;20040;-77
2022/12/15 11:42:29;;;;;;;22.10;11.85;;;;;;;-1.38;100.00;100476.94;5030731;28;20029;-77
2022/12/15 11:45:16;;;;;;;28.67;14.98;;;;;;;-1.24;100.00;100483.28;4998989;28;20037;-77
2022/12/15 11:47:55;;;;;;;21.42;11.70;;;;;;;-1.10;100.00;100474.06;5012572;28;20036;-77
2022/12/15 11:50:38;;;;;;;11.60;7.03;;;;;;;-0.98;100.00;100478.69;5030261;28;20398;-77
2022/12/15 11:53:11;;;;;;;17.63;9.35;;;;;;;-0.94;100.00;100482.81;5024709;28;20038;-77
2022/12/15 11:56:01;;;;;;;18.95;8.90;;;;;;;-0.97;100.00;100487.31;5045256;28;20074;-77
2022/12/15 11:58:48;;;;;;;18.45;8.30;;;;;;;-1.02;100.00;100483.16;5027564;28;20048;-77
2022/12/15 12:01:29;;;;;;;18.92;8.20;;;;;;;-1.01;100.00;100482.28;4995374;28;20053;-77
2022/12/15 12:04:20;;;;;;;18.55;8.25;;;;;;;-0.91;100.00;100474.06;5027639;28;20033;-78
2022/12/15 12:06:52;;;;;;;15.25;9.65;;;;;;;-0.79;100.00;100470.06;5045222;28;20040;-77
2022/12/15 12:09:24;;;;;;;20.15;9.15;;;;;;;-0.74;100.00;100470.69;5038273;28;20033;-77
2022/12/15 12:12:20;;;;;;;19.17;8.70;;;;;;;-0.64;100.00;100468.53;5025383;28;20049;-77
2022/12/15 12:15:23;;;;;;;23.08;10.13;;;;;;;-0.55;100.00;100464.66;5044509;28;20033;-77
2022/12/15 12:17:52;;;;;;;24.95;11.85;;;;;;;-0.53;100.00;100470.63;5027112;28;20128;-77
2022/12/15 12:20:27;;;;;;;23.58;11.43;;;;;;;-0.47;100.00;100462.53;5023406;28;20026;-77
2022/12/15 12:23:19;;;;;;;17.70;9.40;;;;;;;-0.39;100.00;100465.63;5023868;28;20052;-77
2022/12/15 12:25:59;;;;;;;24.83;10.05;;;;;;;-0.27;100.00;100464.19;5012560;28;20524;-77
2022/12/15 12:28:39;;;;;;;21.40;9.93;;;;;;;-0.16;100.00;100457.66;5029826;28;20029;-77
2022/12/15 12:31:25;;;;;;;17.40;8.85;;;;;;;-0.17;100.00;100459.41;5009390;28;20029;-77
2022/12/15 12:33:57;;;;;;;19.38;9.88;;;;;;;-0.14;100.00;100466.19;5025243;28;20026;-77
2022/12/15 12:36:23;;;;;;;23.75;10.00;;;;;;;-0.06;100.00;100458.00;5029263;28;20036;-77
2022/12/15 12:38:56;;;;;;;15.73;8.38;;;;;;;0.10;100.00;100460.69;5032716;28;20083;-77
2022/12/15 12:41:50;;;;;;;13.70;7.60;;;;;;;0.16;100.00;100451.78;5045852;28;20037;-77
2022/12/15 12:44:28;;;;;;;13.75;6.00;;;;;;;0.18;100.00;100449.94;5043858;28;20033;-78
2022/12/15 12:46:57;;;;;;;11.73;6.55;;;;;;;0.19;100.00;100457.66;5026947;28;20049;-77
2022/12/15 12:49:31;;;;;;;23.45;8.93;;;;;;;0.27;100.00;100452.06;5012782;28;20045;-76
2022/12/15 12:52:02;;;;;;;15.25;8.27;;;;;;;0.42;100.00;100458.25;5029995;28;20033;-77
2022/12/15 12:54:37;;;;;;;19.77;9.10;;;;;;;0.53;100.00;100443.84;5045473;28;20043;-77
2022/12/15 12:57:11;;;;;;;28.17;11.13;;;;;;;0.63;100.00;100449.41;5024907;28;20040;-77
2022/12/15 12:59:55;;;;;;;35.10;15.52;;;;;;;0.74;100.00;100447.94;5031732;28;20641;-77
2022/12/15 13:02:20;;;;;;;26.83;11.77;;;;;;;0.83;100.00;100446.63;5010456;28;20085;-77
2022/12/15 13:04:56;;;;;;;20.90;9.82;;;;;;;0.92;100.00;100449.66;5043676;28;20061;-77
2022/12/15 13:07:36;;;;;;;14.60;8.82;;;;;;;0.92;100.00;100450.50;5026303;28;20032;-85
2022/12/15 13:10:08;;;;;;;16.52;8.30;;;;;;;0.94;100.00;100446.03;5029076;28;20630;-84
2022/12/15 13:12:51;;;;;;;16.20;7.07;;;;;;;0.93;100.00;100452.19;5029378;28;20128;-85
2022/12/15 13:15:26;;;;;;;12.85;6.95;;;;;;;0.92;100.00;100441.84;5029034;28;20109;-77
2022/12/15 13:18:05;;;;;;;12.50;7.30;;;;;;;0.95;100.00;100446.88;5028527;28;20038;-77
2022/12/15 13:20:39;;;;;;;12.52;7.88;;;;;;;0.93;100.00;100443.53;5010797;28;20041;-85
2022/12/15 13:23:22;;;;;;;15.10;8.48;;;;;;;0.90;100.00;100444.53;5027894;28;20040;-85
2022/12/15 13:25:51;;;;;;;15.43;8.52;;;;;;;0.91;100.00;100446.22;5023554;28;20568;-77
2022/12/15 13:28:32;;;;;;;11.27;7.80;;;;;;;0.98;100.00;100441.53;5040243;28;20032;-77
2022/12/15 13:31:20;;;;;;;19.80;8.57;;;;;;;1.00;100.00;100450.09;5011511;28;20069;-77
2022/12/15 13:33:51;;;;;;;19.73;7.93;;;;;;;1.03;100.00;100446.47;5028314;28;20043;-77
2022/12/15 13:36:35;;;;;;;16.35;9.73;;;;;;;1.07;100.00;100450.59;5028304;28;20037;-77
2022/12/15 13:39:27;;;;;;;13.27;8.05;;;;;;;1.08;100.00;100447.91;5010387;28;20037;-77
2022/12/15 13:41:56;;;;;;;11.18;7.68;;;;;;;1.08;100.00;100442.69;5015966;28;20076;-77
2022/12/15 13:44:33;;;;;;;17.80;7.80;;;;;;;1.15;100.00;100445.81;5007694;28;20039;-77
2022/12/15 13:47:19;;;;;;;17.65;8.30;;;;;;;1.19;100.00;100449.09;5028224;28;20029;-85
2022/12/15 13:50:01;;;;;;;17.73;8.57;;;;;;;1.22;100.00;100446.31;5028169;28;20120;-86
2022/12/15 13:52:35;;;;;;;16.52;7.25;;;;;;;1.23;100.00;100443.63;5007938;28;20040;-85
2022/12/15 13:55:06;;;;;;;12.57;7.18;;;;;;;1.28;100.00;100450.34;5040214;28;20379;-85